• Join FlightAware (Why Join?)
  • Login
  • US Flag 
07:36PM EDT


 

Airport Tracker/Info


-or-


 

Live Flight TrackerFlight Track Log ✈ SWA1377 ✈ 19-Apr-2013 ✈ KBUF - KBWI

Flight Track Log - Related Links

Times and Time Zones

All times are in EDT time to prevent confusion due to time zone crossing. See the SWA1377 flight status page for this flight to view local times or setup timezone preferences in your user account.

Time Position Orientation Groundspeed Altitude Reporting Facility
EDT Latitude Longitude Course Direction KTS MPH feet Rate Location/Type
12:30PM 42.9333 -78.7333 216° Southwest 133 153 2,000  Level Buffalo TRACON
12:31PM 42.9000 -78.7667 216° Southwest 192 221 5,500 3,360 Climbing Buffalo TRACON
12:32PM 42.8439 -78.7625 177° South 213 245 8,300 3,120 Climbing Cleveland Center
12:33PM 42.7811 -78.7500 172° South 240 276 11,400 3,300 Climbing Cleveland Center
12:34PM 42.7122 -78.7353 171° South 254 292 14,900 3,240 Climbing Cleveland Center
12:35PM 42.6369 -78.7147 169° South 264 304 17,900 3,180 Climbing Cleveland Center
12:36PM 42.5631 -78.6633 153° Southeast 281 323 21,300 2,940 Climbing Cleveland Center
12:37PM 42.4850 -78.6122 154° Southeast 300 345 23,800 1,800 Climbing Cleveland Center
12:38PM 42.4008 -78.5558 154° Southeast 315 362 25,000 1,140 Climbing Cleveland Center
12:39PM 42.3058 -78.4944 154° Southeast 348 400 26,200 960 Climbing Cleveland Center
12:40PM 42.2131 -78.4300 153° Southeast 371 427 27,000 360 Climbing Cleveland Center
12:41PM 42.1264 -78.3742 154° Southeast 385 443 27,000  Level Cleveland Center
12:42PM 42.0314 -78.3133 155° Southeast 385 443 27,000  Level Cleveland Center
12:43PM 41.9383 -78.2494 153° Southeast 385 443 27,000  Level Cleveland Center
12:44PM 41.8514 -78.1719 146° Southeast 385 443 27,000  Level Cleveland Center
12:45PM 41.7700 -78.0719 137° Southeast 385 443 27,000  Level Cleveland Center
12:46PM 41.6886 -77.9711 137° Southeast 395 455 27,000  Level New York Center
12:47PM 41.6111 -77.8739 137° Southeast 395 455 27,000  Level New York Center
12:48PM 41.5292 -77.7767 138° Southeast 395 455 27,000 -120 Level New York Center
12:49PM 41.4494 -77.6825 138° Southeast 395 455 26,800 -1,440 Descending New York Center
12:50PM 41.3519 -77.6364 160° South 371 427 24,100 -2,340 Descending New York Center
12:51PM 41.2533 -77.6128 170° South 366 421 22,200 -1,980 Descending New York Center
12:52PM 41.1619 -77.5703 161° South 356 410 20,200 -1,800 Descending New York Center
12:53PM 41.0972 -77.4647 129° Southeast 345 397 18,600 -2,160 Descending New York Center
12:54PM 41.0361 -77.3650 129° Southeast 345 397 15,900 -1,860 Descending New York Center
12:55PM 40.9747 -77.2711 131° Southeast 345 397 14,900 -540 Descending New York Center
12:56PM 40.9150 -77.1775 130° Southeast 335 386 14,900  Level New York Center
12:57PM 40.8578 -77.0789 127° Southeast 335 386 14,900  Level New York Center
12:58PM 40.7981 -76.9883 131° Southeast 330 380 14,900  Level New York Center
12:59PM 40.7347 -76.8867 129° Southeast 330 380 14,900  Level New York Center
01:00PM 40.6806 -76.8025 130° Southeast 330 380 14,900  Level New York Center
01:01PM 40.6208 -76.7069 129° Southeast 330 380 14,900  Level New York Center
01:02PM 40.5550 -76.6031 130° Southeast 330 380 14,900  Level New York Center
01:03PM 40.5053 -76.5114 125° Southeast 335 386 14,900  Level New York Center
01:04PM 40.4519 -76.4086 124° Southeast 335 386 14,900  Level New York Center
01:05PM 40.3883 -76.2972 127° Southeast 342 394 14,900 -360 Level New York Center
01:06PM 40.3097 -76.2883 175° South 280 322 14,300 -780 Descending New York Center
01:07PM 40.2292 -76.3144 194° South 280 322 13,400 -1,200 Descending New York Center
01:08PM 40.1550 -76.3383 194° South 304 350 12,000 -660 Descending New York Center
01:09PM 40.0167 -76.3833 194° South 300 345 11,800 -480 Descending Potomac TRACON
01:10PM 39.9333 -76.4167 197° South 305 351 10,800 -900 Descending Potomac TRACON
01:11PM 39.8500 -76.4333 189° South 289 333 10,100 -360 Descending Potomac TRACON
01:12PM 39.7833 -76.4667 201° Southwest 298 343 10,100 -60 Level Potomac TRACON
01:13PM 39.7167 -76.4833 191° South 292 336 10,000 -600 Descending Potomac TRACON
01:14PM 39.6333 -76.4667 171° South 282 325 9,000 -1,320 Descending Potomac TRACON
01:15PM 39.5500 -76.4333 163° South 274 315 7,300 -1,380 Descending Potomac TRACON
01:16PM 39.5000 -76.4167 166° South 254 292 6,300 -900 Descending Potomac TRACON
01:17PM 39.4667 -76.4833 237° Southwest 214 246 5,600 -960 Descending Potomac TRACON
01:18PM 39.4333 -76.5500 237° Southwest 215 247 4,400 -840 Descending Potomac TRACON
01:19PM 39.4167 -76.6333 256° West 222 255 4,000 -240 Descending Potomac TRACON
01:20PM 39.3833 -76.7000 237° Southwest 220 253 4,000  Level Potomac TRACON
01:21PM 39.3667 -76.7667 252° West 229 264 4,000 -720 Level Potomac TRACON
01:22PM 39.3000 -76.8000 201° Southwest 217 250 2,600 -840 Descending Potomac TRACON
01:23PM 39.2500 -76.8333 207° Southwest 189 217 2,400 -180 Descending Potomac TRACON
01:24PM 39.2167 -76.8167 159° South 160 184 2,300 -480 Descending Potomac TRACON
01:25PM 39.1833 -76.7667 131° Southeast 169 194 1,500 -780 Descending Potomac TRACON
01:26PM 39.1833 -76.7167 90° East 163 188 800 60 Descending Potomac TRACON
01:27PM 39.1667 -76.6500 108° East 182 209 1,700 840 Climbing Potomac TRACON
01:28PM 39.2167 -76.5833 46° Northeast 255 293 2,500 780 Climbing Potomac TRACON